Time;durP1;ratioP1;P1;durP2;ratioP2;P2;SDS_P1;SDS_P2;PMS_P1;PMS_P2;Temp;Humidity;BMP_temperature;BMP_pressure;BME280_temperature;BME280_humidity;BME280_pressure;Samples;Min_cycle;Max_cycle;Signal;HPM_P1;HPM_P2
2021/06/11 00:02:28;;;;;;;0.00;0.00;;;14.10;99.90;;;;;;4991693;28;20277;-69
2021/06/11 00:04:54;;;;;;;0.90;0.77;;;14.10;99.90;;;;;;4993544;28;20626;-68
2021/06/11 00:07:21;;;;;;;0.00;0.00;;;14.10;99.90;;;;;;4994243;28;20228;-68
2021/06/11 00:09:47;;;;;;;0.00;0.00;;;14.10;99.90;;;;;;4993842;28;20205;-68
2021/06/11 00:12:14;;;;;;;0.00;0.00;;;14.10;99.90;;;;;;4992122;28;20667;-69
2021/06/11 00:14:41;;;;;;;0.00;0.00;;;14.10;99.90;;;;;;4990896;28;20217;-69
2021/06/11 00:17:08;;;;;;;0.00;0.00;;;14.10;99.90;;;;;;4991265;28;20232;-68
2021/06/11 00:19:36;;;;;;;0.00;0.00;;;14.10;99.90;;;;;;4992321;28;20265;-71
2021/06/11 00:22:03;;;;;;;0.00;0.00;;;14.10;99.90;;;;;;4994646;28;20209;-68
2021/06/11 00:24:30;;;;;;;0.00;0.00;;;14.10;99.90;;;;;;4990820;28;20209;-68
2021/06/11 00:26:56;;;;;;;0.00;0.00;;;14.20;99.90;;;;;;4993062;28;20683;-68
2021/06/11 00:29:23;;;;;;;0.00;0.00;;;14.30;99.90;;;;;;4990331;28;20209;-67
2021/06/11 00:31:49;;;;;;;0.00;0.00;;;14.40;99.90;;;;;;4992557;28;20197;-67
2021/06/11 00:34:16;;;;;;;0.00;0.00;;;14.50;99.90;;;;;;4992660;28;20208;-68
2021/06/11 00:36:43;;;;;;;0.07;0.07;;;14.60;99.90;;;;;;4993768;28;20209;-68
2021/06/11 00:39:10;;;;;;;0.00;0.00;;;14.70;99.90;;;;;;4995074;28;20205;-68
2021/06/11 00:41:36;;;;;;;0.00;0.00;;;14.70;99.90;;;;;;4992378;28;20197;-67
2021/06/11 00:44:03;;;;;;;0.00;0.00;;;14.90;99.90;;;;;;4990148;28;20229;-67
2021/06/11 00:46:30;;;;;;;0.00;0.00;;;15.00;99.90;;;;;;4991205;28;20209;-68
2021/06/11 00:48:56;;;;;;;0.00;0.00;;;15.10;99.90;;;;;;4992633;28;20271;-69
2021/06/11 00:51:24;;;;;;;0.00;0.00;;;15.20;99.90;;;;;;4991703;28;20205;-70
2021/06/11 00:53:53;;;;;;;0.00;0.00;;;15.30;99.90;;;;;;4992384;28;20213;-68
2021/06/11 00:56:20;;;;;;;3.03;1.50;;;15.40;99.90;;;;;;4991845;28;20230;-71
2021/06/11 00:58:47;;;;;;;0.00;0.00;;;15.50;99.90;;;;;;4989717;28;20202;-68
2021/06/11 01:01:13;;;;;;;0.00;0.00;;;15.60;99.90;;;;;;4990615;28;20194;-68
2021/06/11 01:03:40;;;;;;;0.20;0.13;;;15.70;99.90;;;;;;4991621;28;20205;-67
2021/06/11 01:06:06;;;;;;;0.13;0.13;;;15.70;99.90;;;;;;4991633;28;20206;-68
2021/06/11 01:08:33;;;;;;;0.00;0.00;;;15.80;99.90;;;;;;4991999;28;20607;-70
2021/06/11 01:11:01;;;;;;;0.00;0.00;;;15.80;99.90;;;;;;4994334;28;20210;-68
2021/06/11 01:13:28;;;;;;;0.00;0.00;;;15.80;99.90;;;;;;4990596;28;20663;-69
2021/06/11 01:15:55;;;;;;;0.00;0.00;;;15.80;99.90;;;;;;4991481;28;20223;-67
2021/06/11 01:18:23;;;;;;;0.47;0.43;;;15.80;99.90;;;;;;4991768;28;20202;-68
2021/06/11 01:20:49;;;;;;;0.10;0.10;;;15.90;99.90;;;;;;4992049;28;20201;-67
2021/06/11 01:23:43;;;;;;;0.00;0.00;;;15.90;99.90;;;;;;4991966;28;20202;-68
2021/06/11 01:26:30;;;;;;;0.00;0.00;;;15.90;99.90;;;;;;4998430;28;20275;-68
2021/06/11 01:29:00;;;;;;;0.00;0.00;;;15.90;99.90;;;;;;4987930;28;20204;-68
2021/06/11 01:31:29;;;;;;;0.00;0.00;;;15.90;99.90;;;;;;4987886;28;22175;-67
2021/06/11 01:34:01;;;;;;;0.00;0.00;;;16.00;99.90;;;;;;4988368;28;20265;-66
2021/06/11 01:36:33;;;;;;;0.00;0.00;;;16.00;99.90;;;;;;4991316;28;20310;-67
2021/06/11 01:39:02;;;;;;;0.43;0.43;;;16.00;99.90;;;;;;4991200;28;20204;-66
2021/06/11 01:41:31;;;;;;;0.00;0.00;;;16.00;99.90;;;;;;4990775;28;20232;-66
2021/06/11 01:43:59;;;;;;;0.00;0.00;;;16.10;99.90;;;;;;4989305;28;20647;-67
2021/06/11 01:46:31;;;;;;;0.10;0.10;;;16.00;99.90;;;;;;4991663;28;20682;-69
2021/06/11 01:48:59;;;;;;;0.10;0.10;;;16.10;99.90;;;;;;4990680;28;20197;-69
2021/06/11 01:51:26;;;;;;;0.43;0.43;;;16.00;99.90;;;;;;4991406;28;20280;-68
2021/06/11 01:53:55;;;;;;;0.43;0.10;;;16.10;99.90;;;;;;4992406;28;20198;-67
2021/06/11 01:56:21;;;;;;;0.20;0.20;;;16.10;99.90;;;;;;4998147;28;20233;-67
2021/06/11 01:58:50;;;;;;;3.40;2.37;;;16.10;99.90;;;;;;4990057;28;20209;-70
2021/06/11 02:01:18;;;;;;;0.93;0.83;;;16.10;99.90;;;;;;4990796;28;20653;-66
2021/06/11 02:03:46;;;;;;;0.77;0.77;;;16.10;99.90;;;;;;4990832;28;20519;-69
2021/06/11 02:06:15;;;;;;;0.10;0.10;;;16.10;99.90;;;;;;4991194;28;20201;-66
2021/06/11 02:08:43;;;;;;;7.13;2.07;;;16.10;99.90;;;;;;4991974;28;20225;-66
2021/06/11 02:11:10;;;;;;;0.00;0.00;;;16.10;99.90;;;;;;4991401;28;20206;-69
2021/06/11 02:13:40;;;;;;;3.40;3.00;;;16.10;99.90;;;;;;4990475;28;20205;-66
2021/06/11 02:16:09;;;;;;;0.47;0.47;;;16.20;99.90;;;;;;4989498;28;20753;-66
2021/06/11 02:18:36;;;;;;;0.00;0.00;;;16.20;99.90;;;;;;4990215;28;20209;-65
2021/06/11 02:21:04;;;;;;;0.00;0.00;;;16.20;99.90;;;;;;4990067;28;20209;-66
2021/06/11 02:23:31;;;;;;;0.10;0.10;;;16.10;99.90;;;;;;4993934;28;20201;-66
2021/06/11 02:25:58;;;;;;;0.67;0.27;;;16.10;99.90;;;;;;4991231;28;20260;-66
2021/06/11 02:28:24;;;;;;;0.50;0.50;;;16.20;99.90;;;;;;4988121;28;20209;-66
2021/06/11 02:30:51;;;;;;;1.27;0.60;;;16.10;99.90;;;;;;4990813;28;20201;-66
2021/06/11 02:33:20;;;;;;;0.00;0.00;;;16.20;99.90;;;;;;4989798;28;20201;-67
2021/06/11 02:35:46;;;;;;;0.00;0.00;;;16.10;99.90;;;;;;4988807;28;20684;-66
2021/06/11 02:38:13;;;;;;;0.00;0.00;;;16.10;99.90;;;;;;4990274;28;20252;-66
2021/06/11 02:40:39;;;;;;;0.00;0.00;;;16.10;99.90;;;;;;4989764;28;20248;-66
2021/06/11 02:43:10;;;;;;;0.00;0.00;;;16.10;99.90;;;;;;4991572;28;20229;-67
2021/06/11 02:45:40;;;;;;;0.00;0.00;;;16.10;99.90;;;;;;4989834;28;20559;-66
2021/06/11 02:48:17;;;;;;;1.17;0.97;;;16.10;99.90;;;;;;4990897;28;20197;-66
2021/06/11 02:50:52;;;;;;;0.00;0.00;;;16.10;99.90;;;;;;4990952;28;20201;-66
2021/06/11 02:53:25;;;;;;;0.23;0.23;;;16.10;99.90;;;;;;4989444;28;20197;-66
2021/06/11 02:55:56;;;;;;;0.33;0.33;;;16.10;99.90;;;;;;4986790;28;20278;-69
2021/06/11 02:58:27;;;;;;;4.53;2.43;;;16.10;99.90;;;;;;4990003;28;20597;-67
2021/06/11 03:00:55;;;;;;;0.00;0.00;;;16.00;99.90;;;;;;4989317;28;20190;-68
2021/06/11 03:03:25;;;;;;;0.00;0.00;;;16.10;99.90;;;;;;4989447;28;20197;-70
2021/06/11 03:05:55;;;;;;;2.30;1.10;;;16.00;99.90;;;;;;4992667;28;20256;-67
2021/06/11 03:08:25;;;;;;;0.00;0.00;;;16.00;99.90;;;;;;4991007;28;20201;-68
2021/06/11 03:10:57;;;;;;;0.00;0.00;;;16.00;99.90;;;;;;4989749;28;20230;-68
2021/06/11 03:13:25;;;;;;;1.40;1.23;;;16.00;99.90;;;;;;4991501;28;20602;-69
2021/06/11 03:15:52;;;;;;;1.17;0.67;;;16.00;99.90;;;;;;4991987;28;20275;-68
2021/06/11 03:18:26;;;;;;;0.00;0.00;;;15.90;99.90;;;;;;4990070;28;20202;-67
2021/06/11 03:20:55;;;;;;;0.00;0.00;;;15.90;99.90;;;;;;4988647;28;20714;-68
2021/06/11 03:23:27;;;;;;;0.00;0.00;;;15.90;99.90;;;;;;4993764;28;20198;-67
2021/06/11 03:25:58;;;;;;;0.70;0.70;;;15.90;99.90;;;;;;4989612;28;20194;-69
2021/06/11 03:28:30;;;;;;;0.20;0.20;;;15.90;99.90;;;;;;4990113;28;20737;-68
2021/06/11 03:31:01;;;;;;;0.30;0.30;;;15.90;99.90;;;;;;4980869;28;20208;-68
2021/06/11 03:33:31;;;;;;;0.10;0.10;;;15.90;99.90;;;;;;4993335;28;20300;-68
2021/06/11 03:36:04;;;;;;;0.33;0.33;;;15.90;99.90;;;;;;4989148;28;20309;-68
2021/06/11 03:38:36;;;;;;;0.53;0.53;;;15.90;99.90;;;;;;4987360;28;20263;-67
2021/06/11 03:41:03;;;;;;;1.90;1.10;;;15.90;99.90;;;;;;4993942;28;20647;-68
2021/06/11 03:43:31;;;;;;;0.00;0.00;;;15.90;99.90;;;;;;4993706;28;20230;-68
2021/06/11 03:45:59;;;;;;;0.20;0.20;;;15.90;99.90;;;;;;4989453;28;20202;-69
2021/06/11 03:48:29;;;;;;;0.10;0.10;;;15.90;99.90;;;;;;4992165;28;20228;-67
2021/06/11 03:50:55;;;;;;;0.00;0.00;;;15.80;99.90;;;;;;4993859;28;20209;-68
2021/06/11 03:53:25;;;;;;;0.00;0.00;;;15.80;99.90;;;;;;4992255;28;20230;-70
2021/06/11 03:55:59;;;;;;;0.60;0.40;;;15.80;99.90;;;;;;4986743;28;20226;-68
2021/06/11 03:58:29;;;;;;;0.00;0.00;;;15.80;99.90;;;;;;4993164;28;20198;-69
2021/06/11 04:00:58;;;;;;;0.00;0.00;;;15.80;99.90;;;;;;4991670;28;20268;-68
2021/06/11 04:03:25;;;;;;;0.40;0.40;;;15.80;99.90;;;;;;4990118;28;20202;-70
2021/06/11 04:05:59;;;;;;;0.67;0.67;;;15.80;99.90;;;;;;4987986;28;20237;-69
2021/06/11 04:08:30;;;;;;;1.13;1.03;;;15.80;99.90;;;;;;4993627;28;20200;-69
2021/06/11 04:10:58;;;;;;;0.00;0.00;;;15.80;99.90;;;;;;4993074;28;20197;-68
2021/06/11 04:13:29;;;;;;;0.00;0.00;;;15.80;99.90;;;;;;4993431;28;20202;-68
2021/06/11 04:15:59;;;;;;;0.10;0.10;;;15.90;99.90;;;;;;4991164;28;20222;-68
2021/06/11 04:18:30;;;;;;;0.13;0.10;;;15.90;99.90;;;;;;4992308;28;20201;-68
2021/06/11 04:20:59;;;;;;;0.00;0.00;;;15.90;99.90;;;;;;4991700;28;20256;-68
2021/06/11 04:23:30;;;;;;;0.00;0.00;;;16.00;99.90;;;;;;5002554;28;20244;-68
2021/06/11 04:25:59;;;;;;;0.07;0.07;;;16.00;99.90;;;;;;4989131;28;20202;-68
2021/06/11 04:28:30;;;;;;;0.00;0.00;;;16.00;99.90;;;;;;4990885;28;20201;-67
2021/06/11 04:30:57;;;;;;;0.23;0.23;;;16.00;99.90;;;;;;4992401;28;20200;-68
2021/06/11 04:33:26;;;;;;;0.00;0.00;;;16.00;99.90;;;;;;4993701;28;20205;-69
2021/06/11 04:35:53;;;;;;;0.03;0.03;;;16.10;99.90;;;;;;4992548;28;20582;-68
2021/06/11 04:38:21;;;;;;;1.70;0.40;;;16.10;99.90;;;;;;4992642;28;20202;-68
2021/06/11 04:40:49;;;;;;;5.10;1.17;;;16.00;99.90;;;;;;4990429;28;20194;-68
2021/06/11 04:43:16;;;;;;;3.80;2.37;;;15.90;99.90;;;;;;4990094;28;20252;-69
2021/06/11 04:45:43;;;;;;;0.00;0.00;;;15.90;99.90;;;;;;4992430;28;20203;-68
2021/06/11 04:48:10;;;;;;;1.03;0.10;;;15.80;99.90;;;;;;4992884;28;20256;-68
2021/06/11 04:50:37;;;;;;;0.00;0.00;;;15.80;99.90;;;;;;4992884;28;20202;-68
2021/06/11 04:53:03;;;;;;;0.10;0.10;;;15.80;99.90;;;;;;4993567;28;20201;-68
2021/06/11 04:55:30;;;;;;;0.00;0.00;;;15.80;99.90;;;;;;4990058;28;20832;-68
2021/06/11 04:57:57;;;;;;;1.17;1.07;;;15.70;99.90;;;;;;4991404;28;20213;-69
2021/06/11 05:00:25;;;;;;;0.17;0.17;;;15.70;99.90;;;;;;4991159;28;20955;-68
2021/06/11 05:02:52;;;;;;;0.00;0.00;;;15.70;99.90;;;;;;4992574;28;20267;-68
2021/06/11 05:05:19;;;;;;;0.00;0.00;;;15.70;99.90;;;;;;4992083;28;20202;-68
2021/06/11 05:07:45;;;;;;;0.87;0.73;;;15.70;99.90;;;;;;4992170;28;20643;-68
2021/06/11 05:10:14;;;;;;;0.20;0.20;;;15.70;99.90;;;;;;4992527;28;20201;-68
2021/06/11 05:12:40;;;;;;;0.10;0.10;;;15.70;99.90;;;;;;4991593;28;20198;-68
2021/06/11 05:15:10;;;;;;;0.73;0.73;;;15.80;99.90;;;;;;4991085;28;20229;-68
2021/06/11 05:17:36;;;;;;;0.20;0.20;;;15.80;99.90;;;;;;4990437;28;20202;-69
2021/06/11 05:20:03;;;;;;;0.00;0.00;;;15.80;99.90;;;;;;4990587;28;20540;-68
2021/06/11 05:22:30;;;;;;;0.20;0.20;;;15.90;99.90;;;;;;4999811;28;20267;-67
2021/06/11 05:24:59;;;;;;;0.00;0.00;;;15.90;99.90;;;;;;4991408;28;20210;-69
2021/06/11 05:27:25;;;;;;;0.47;0.47;;;16.00;99.90;;;;;;4992726;28;20619;-69
2021/06/11 05:29:52;;;;;;;0.10;0.10;;;16.00;99.90;;;;;;4992086;28;20264;-68
2021/06/11 05:32:20;;;;;;;0.00;0.00;;;16.00;99.90;;;;;;4990168;28;20206;-69
2021/06/11 05:34:46;;;;;;;0.00;0.00;;;16.10;99.90;;;;;;4990559;28;20205;-69
2021/06/11 05:37:13;;;;;;;0.00;0.00;;;16.10;99.90;;;;;;4990810;28;20230;-69
2021/06/11 05:39:39;;;;;;;0.20;0.20;;;16.20;99.90;;;;;;4989578;28;20209;-70
2021/06/11 05:42:06;;;;;;;0.00;0.00;;;16.20;99.90;;;;;;4988834;28;20201;-68
2021/06/11 05:44:33;;;;;;;0.03;0.03;;;16.30;99.90;;;;;;4987028;28;20205;-69
2021/06/11 05:46:59;;;;;;;0.10;0.10;;;16.30;99.90;;;;;;4992393;28;20596;-69
2021/06/11 05:49:27;;;;;;;0.00;0.00;;;16.30;99.90;;;;;;4990845;28;21139;-68
2021/06/11 05:51:54;;;;;;;1.03;1.03;;;16.40;99.90;;;;;;4990645;28;20209;-69
2021/06/11 05:54:20;;;;;;;0.10;0.10;;;16.40;99.90;;;;;;4990596;28;20201;-72
2021/06/11 05:56:47;;;;;;;3.73;0.83;;;16.30;99.90;;;;;;4988991;28;20627;-70
2021/06/11 05:59:13;;;;;;;0.10;0.03;;;16.30;99.90;;;;;;4992484;28;20205;-69
2021/06/11 06:01:40;;;;;;;0.20;0.20;;;16.30;99.90;;;;;;4992199;28;20205;-70
2021/06/11 06:04:06;;;;;;;0.73;0.50;;;16.30;99.90;;;;;;4991966;28;20228;-68
2021/06/11 06:06:34;;;;;;;1.53;0.73;;;16.40;99.90;;;;;;4988326;28;20198;-70
2021/06/11 06:09:00;;;;;;;0.70;0.70;;;16.40;99.90;;;;;;4990388;28;20225;-71
2021/06/11 06:11:27;;;;;;;0.00;0.00;;;16.40;99.90;;;;;;4990795;28;20205;-70
2021/06/11 06:13:53;;;;;;;0.00;0.00;;;16.40;99.90;;;;;;4992808;28;20225;-69
2021/06/11 06:16:20;;;;;;;0.00;0.00;;;16.40;99.90;;;;;;4990917;28;20230;-69
2021/06/11 06:18:46;;;;;;;0.53;0.53;;;16.40;99.90;;;;;;4989224;28;20202;-65
2021/06/11 06:21:13;;;;;;;0.00;0.00;;;16.50;99.90;;;;;;4991581;28;20268;-69
2021/06/11 06:23:41;;;;;;;0.50;0.50;;;16.50;99.90;;;;;;4997075;28;20620;-66
2021/06/11 06:26:07;;;;;;;0.00;0.00;;;16.60;99.90;;;;;;4988354;28;20221;-71
2021/06/11 06:28:34;;;;;;;0.00;0.00;;;16.60;99.90;;;;;;4985580;28;20741;-69
2021/06/11 06:31:00;;;;;;;0.00;0.00;;;16.60;99.90;;;;;;4990413;28;20205;-69
2021/06/11 06:33:27;;;;;;;0.57;0.27;;;16.70;99.90;;;;;;4989859;28;20213;-69
2021/06/11 06:35:53;;;;;;;0.30;0.30;;;16.80;99.90;;;;;;4987779;28;20229;-68
2021/06/11 06:38:24;;;;;;;0.00;0.00;;;16.80;99.90;;;;;;4987724;28;20205;-71
2021/06/11 06:40:58;;;;;;;3.30;0.30;;;16.80;99.90;;;;;;4990945;28;20663;-71
2021/06/11 06:43:25;;;;;;;0.10;0.10;;;16.90;99.90;;;;;;4989572;28;20243;-70
2021/06/11 06:45:51;;;;;;;0.00;0.00;;;17.00;99.90;;;;;;4988874;28;20260;-69
2021/06/11 06:48:18;;;;;;;0.20;0.17;;;17.00;99.90;;;;;;4985153;28;20205;-72
2021/06/11 06:50:45;;;;;;;0.10;0.10;;;17.00;99.90;;;;;;4990043;28;20205;-67
2021/06/11 06:53:11;;;;;;;0.00;0.00;;;17.10;99.90;;;;;;4983744;28;20209;-70
2021/06/11 06:55:38;;;;;;;0.00;0.00;;;17.20;99.90;;;;;;4981872;28;20224;-70
2021/06/11 06:58:06;;;;;;;0.00;0.00;;;17.20;99.90;;;;;;4983152;28;20206;-70
2021/06/11 07:00:34;;;;;;;0.00;0.00;;;17.20;99.90;;;;;;4982022;28;20200;-70
2021/06/11 07:03:00;;;;;;;1.27;1.17;;;17.30;99.90;;;;;;4982730;28;20259;-72
2021/06/11 07:05:27;;;;;;;1.93;1.53;;;17.30;99.90;;;;;;4983215;28;20206;-71
2021/06/11 07:07:54;;;;;;;0.07;0.07;;;17.30;99.90;;;;;;4983774;28;20202;-70
2021/06/11 07:10:21;;;;;;;0.40;0.33;;;17.40;99.90;;;;;;4980924;28;21172;-70
2021/06/11 07:12:47;;;;;;;0.63;0.20;;;17.40;99.90;;;;;;4981373;28;20557;-72
2021/06/11 07:15:15;;;;;;;0.00;0.00;;;17.50;99.90;;;;;;4982051;28;20526;-71
2021/06/11 07:17:42;;;;;;;0.00;0.00;;;17.50;99.90;;;;;;4980637;28;20203;-69
2021/06/11 07:20:10;;;;;;;0.00;0.00;;;17.60;99.90;;;;;;4981173;28;20206;-73
2021/06/11 07:22:37;;;;;;;0.00;0.00;;;17.70;99.90;;;;;;4983020;28;20227;-70
2021/06/11 07:25:05;;;;;;;0.60;0.60;;;17.80;99.90;;;;;;4979288;28;20209;-71
2021/06/11 07:27:33;;;;;;;0.20;0.20;;;17.90;99.90;;;;;;4982468;28;20224;-69
2021/06/11 07:29:59;;;;;;;0.00;0.00;;;17.90;99.90;;;;;;4982036;28;20219;-69
2021/06/11 07:32:27;;;;;;;0.00;0.00;;;18.00;99.90;;;;;;4982846;28;20260;-69
2021/06/11 07:34:54;;;;;;;0.00;0.00;;;18.00;99.90;;;;;;4979266;28;20225;-70
2021/06/11 07:37:20;;;;;;;0.40;0.33;;;18.00;99.90;;;;;;4981867;28;20361;-67
2021/06/11 07:39:47;;;;;;;1.47;1.37;;;18.10;99.90;;;;;;4981799;28;20194;-68
2021/06/11 07:42:14;;;;;;;0.00;0.00;;;18.20;99.90;;;;;;4983359;28;20225;-67
2021/06/11 07:44:41;;;;;;;0.00;0.00;;;18.10;99.90;;;;;;4983527;28;20194;-72
2021/06/11 07:47:08;;;;;;;0.00;0.00;;;18.20;99.90;;;;;;4981456;28;20206;-66
2021/06/11 07:49:38;;;;;;;0.60;0.33;;;18.30;99.90;;;;;;4982877;28;20206;-67
2021/06/11 07:52:05;;;;;;;0.10;0.10;;;18.30;99.90;;;;;;4981940;28;20288;-70
2021/06/11 07:54:32;;;;;;;0.10;0.10;;;18.30;99.90;;;;;;4983848;28;20199;-67
2021/06/11 07:56:58;;;;;;;0.00;0.00;;;18.40;99.90;;;;;;4982742;28;20741;-68
2021/06/11 07:59:25;;;;;;;0.43;0.43;;;18.50;99.90;;;;;;4982667;28;20205;-67
2021/06/11 08:01:51;;;;;;;1.40;1.17;;;18.50;99.90;;;;;;4990190;28;20275;-68
2021/06/11 08:04:18;;;;;;;2.33;0.83;;;18.50;99.90;;;;;;4990577;28;20202;-67
2021/06/11 08:06:47;;;;;;;0.00;0.00;;;18.60;99.90;;;;;;4992461;28;20209;-70
2021/06/11 08:09:14;;;;;;;0.03;0.03;;;18.70;99.90;;;;;;4989641;28;20197;-68
2021/06/11 08:11:40;;;;;;;0.60;0.57;;;18.90;99.90;;;;;;4994945;28;20208;-67
2021/06/11 08:14:07;;;;;;;0.00;0.00;;;19.10;99.90;;;;;;4992010;28;20221;-69
2021/06/11 08:16:34;;;;;;;0.50;0.50;;;19.20;99.90;;;;;;4990637;28;20236;-70
2021/06/11 08:19:01;;;;;;;0.10;0.10;;;19.30;99.90;;;;;;4992517;28;20194;-68
2021/06/11 08:21:27;;;;;;;0.10;0.10;;;19.40;99.90;;;;;;4990388;28;20201;-69
2021/06/11 08:23:55;;;;;;;0.27;0.10;;;19.30;99.90;;;;;;4993400;28;20225;-70
2021/06/11 08:26:21;;;;;;;0.77;0.47;;;19.20;99.90;;;;;;4994148;28;20223;-72
2021/06/11 08:28:48;;;;;;;0.53;0.40;;;19.20;99.90;;;;;;4989506;28;20202;-69
2021/06/11 08:31:14;;;;;;;0.20;0.20;;;19.10;99.90;;;;;;4989983;28;20202;-70
2021/06/11 08:33:42;;;;;;;0.67;0.67;;;19.10;99.90;;;;;;4993067;28;20205;-69
2021/06/11 08:36:08;;;;;;;0.10;0.10;;;19.10;99.90;;;;;;4991739;28;20232;-70
2021/06/11 08:38:35;;;;;;;0.00;0.00;;;18.90;99.90;;;;;;4988714;28;20202;-69
2021/06/11 08:41:03;;;;;;;0.00;0.00;;;18.80;99.90;;;;;;4991722;28;20256;-69
2021/06/11 08:43:30;;;;;;;0.00;0.00;;;18.80;99.90;;;;;;4992518;28;20233;-69
2021/06/11 08:45:57;;;;;;;0.07;0.07;;;18.80;99.90;;;;;;4992064;28;20252;-69
2021/06/11 08:48:24;;;;;;;0.00;0.00;;;18.80;99.90;;;;;;4992888;28;20208;-70
2021/06/11 08:50:51;;;;;;;0.30;0.30;;;18.90;99.90;;;;;;4991050;28;20268;-69
2021/06/11 08:53:18;;;;;;;0.00;0.00;;;19.00;99.90;;;;;;4993232;28;20260;-72
2021/06/11 08:55:46;;;;;;;0.00;0.00;;;19.10;99.90;;;;;;4991960;28;20265;-72
2021/06/11 08:58:14;;;;;;;0.80;0.67;;;19.10;99.90;;;;;;4991758;28;20205;-71
2021/06/11 09:00:41;;;;;;;0.27;0.27;;;19.20;99.90;;;;;;4984017;28;20244;-70
2021/06/11 09:03:17;;;;;;;0.00;0.00;;;19.30;99.90;;;;;;4991841;28;20208;-69
2021/06/11 09:05:45;;;;;;;0.40;0.40;;;19.40;99.90;;;;;;4993321;28;20197;-68
2021/06/11 09:08:17;;;;;;;0.30;0.30;;;19.40;99.90;;;;;;4992929;28;20206;-69
2021/06/11 09:10:44;;;;;;;0.83;0.77;;;19.40;99.90;;;;;;4991624;28;20202;-68
2021/06/11 09:13:20;;;;;;;0.00;0.00;;;19.30;99.90;;;;;;4992165;28;20198;-69
2021/06/11 09:15:48;;;;;;;0.00;0.00;;;19.30;99.90;;;;;;4991200;28;20608;-69
2021/06/11 09:18:23;;;;;;;4.67;3.13;;;19.40;99.90;;;;;;4990975;28;20548;-68
2021/06/11 09:20:50;;;;;;;0.20;0.20;;;19.50;99.90;;;;;;4992993;28;20284;-68
2021/06/11 09:23:18;;;;;;;0.00;0.00;;;19.50;99.90;;;;;;4990349;28;20204;-68
2021/06/11 09:25:48;;;;;;;0.20;0.10;;;19.50;99.90;;;;;;4988829;28;20232;-68
2021/06/11 09:28:17;;;;;;;0.00;0.00;;;19.50;99.90;;;;;;4994076;28;20209;-69
2021/06/11 09:30:52;;;;;;;0.03;0.03;;;19.60;99.90;;;;;;4988304;28;20213;-69
2021/06/11 09:33:20;;;;;;;0.17;0.17;;;19.70;99.90;;;;;;4991770;28;20687;-68
2021/06/11 09:35:48;;;;;;;1.20;1.20;;;19.70;99.90;;;;;;4991424;28;20228;-69
2021/06/11 09:38:19;;;;;;;0.60;0.60;;;19.50;99.90;;;;;;4993884;28;20206;-69
2021/06/11 09:40:52;;;;;;;0.57;0.57;;;19.40;99.90;;;;;;4985559;28;20198;-76
2021/06/11 09:43:19;;;;;;;1.20;1.13;;;19.40;99.90;;;;;;4987825;28;20238;-69
2021/06/11 09:46:03;;;;;;;4.03;2.23;;;19.40;99.90;;;;;;4991505;28;20604;-68
2021/06/11 09:48:39;;;;;;;0.97;0.73;;;19.30;99.90;;;;;;4987775;28;21062;-68
2021/06/11 09:51:12;;;;;;;0.40;0.40;;;19.30;99.90;;;;;;4991736;28;20248;-68
2021/06/11 09:53:39;;;;;;;0.00;0.00;;;19.30;99.90;;;;;;4990897;28;20232;-68
2021/06/11 09:56:07;;;;;;;0.00;0.00;;;19.30;99.90;;;;;;4993441;28;20328;-66
2021/06/11 09:58:36;;;;;;;1.03;0.93;;;19.40;99.90;;;;;;4992967;28;20204;-69
2021/06/11 10:01:11;;;;;;;1.23;1.13;;;19.50;99.90;;;;;;4989180;28;20570;-68
2021/06/11 10:03:39;;;;;;;1.80;1.50;;;19.50;99.90;;;;;;4990190;28;20204;-67
2021/06/11 10:06:07;;;;;;;1.10;1.07;;;19.60;99.90;;;;;;4990913;28;20648;-69
2021/06/11 10:08:34;;;;;;;0.03;0.03;;;19.70;99.90;;;;;;4988824;28;20195;-69
2021/06/11 10:11:03;;;;;;;2.33;1.07;;;19.90;99.90;;;;;;4989122;28;20217;-67
2021/06/11 10:13:30;;;;;;;1.03;1.03;;;20.10;99.90;;;;;;4991576;28;20217;-68
2021/06/11 10:15:58;;;;;;;3.65;1.55;;;20.20;99.90;;;;;;4990345;28;20300;-72
2021/06/11 10:18:26;;;;;;;1.65;0.65;;;20.30;99.90;;;;;;4997026;28;20201;-69
2021/06/11 10:20:53;;;;;;;3.43;3.23;;;20.50;99.90;;;;;;5000340;28;20651;-68
2021/06/11 10:23:23;;;;;;;0.87;0.87;;;20.60;99.90;;;;;;4988936;28;20681;-68
2021/06/11 10:25:54;;;;;;;1.85;1.75;;;20.60;99.90;;;;;;4991028;28;20211;-68
2021/06/11 10:28:24;;;;;;;0.00;0.00;;;20.50;99.90;;;;;;4990336;28;20228;-70
2021/06/11 10:30:55;;;;;;;0.00;0.00;;;20.50;99.90;;;;;;4991201;28;20292;-70
2021/06/11 10:33:50;;;;;;;0.00;0.00;;;20.30;99.90;;;;;;4987848;28;20202;-68
2021/06/11 10:36:33;;;;;;;0.77;0.77;;;20.30;99.90;;;;;;4986127;28;20643;-69
2021/06/11 10:39:01;;;;;;;0.33;0.33;;;20.20;99.90;;;;;;4988760;28;20205;-69
2021/06/11 10:41:28;;;;;;;7.28;3.10;;;20.20;99.90;;;;;;4990123;28;20213;-69
2021/06/11 10:43:55;;;;;;;2.08;1.90;;;20.10;99.90;;;;;;4990232;28;20241;-68
2021/06/11 10:46:24;;;;;;;2.17;1.17;;;20.10;99.90;;;;;;4989660;28;20206;-68
2021/06/11 10:49:07;;;;;;;1.60;1.27;;;20.00;99.90;;;;;;4988743;28;20288;-68
2021/06/11 10:51:35;;;;;;;2.03;1.30;;;20.00;99.90;;;;;;4990629;28;20202;-68
2021/06/11 10:54:29;;;;;;;0.10;0.10;;;20.00;99.90;;;;;;4990349;28;20193;-68
2021/06/11 10:57:22;;;;;;;1.00;0.97;;;19.80;99.90;;;;;;4990401;28;20320;-67
2021/06/11 10:59:49;;;;;;;1.73;1.63;;;19.80;99.90;;;;;;4955846;28;20217;-68
2021/06/11 11:02:17;;;;;;;0.33;0.33;;;19.70;99.90;;;;;;4991435;28;20205;-68
2021/06/11 11:04:48;;;;;;;2.33;2.23;;;19.70;99.90;;;;;;4991102;28;20667;-68
2021/06/11 11:07:32;;;;;;;2.13;1.97;;;19.70;99.90;;;;;;4991064;28;20341;-68
2021/06/11 11:10:00;;;;;;;2.00;0.80;;;19.70;99.90;;;;;;4990220;28;20283;-69
2021/06/11 11:12:28;;;;;;;0.50;0.50;;;19.80;99.90;;;;;;4991566;28;20216;-68
2021/06/11 11:14:55;;;;;;;3.70;2.23;;;19.80;99.90;;;;;;4989476;28;20602;-72
2021/06/11 11:17:22;;;;;;;6.40;1.00;;;19.80;99.90;;;;;;4989462;28;20717;-68
2021/06/11 11:19:53;;;;;;;1.30;1.20;;;19.90;99.90;;;;;;4991424;28;20660;-68
2021/06/11 11:22:34;;;;;;;2.33;2.07;;;19.90;99.90;;;;;;4990572;28;20205;-67
2021/06/11 11:25:04;;;;;;;10.52;5.05;;;20.00;99.90;;;;;;4991643;28;20205;-68
2021/06/11 11:27:32;;;;;;;1.67;1.63;;;20.20;99.90;;;;;;4992795;28;20213;-69
2021/06/11 11:29:58;;;;;;;1.52;1.45;;;20.30;99.90;;;;;;4988652;28;20208;-69
2021/06/11 11:32:25;;;;;;;1.23;1.23;;;20.70;99.90;;;;;;4986370;28;20214;-69
2021/06/11 11:34:53;;;;;;;3.60;1.98;;;20.90;99.90;;;;;;4991684;28;20205;-68
2021/06/11 11:37:20;;;;;;;1.13;1.05;;;21.00;99.90;;;;;;4994722;28;20583;-73
2021/06/11 11:39:47;;;;;;;0.00;0.00;;;21.00;99.90;;;;;;4993819;28;20656;-72
2021/06/11 11:42:14;;;;;;;1.25;1.15;;;21.10;99.90;;;;;;4979299;28;20324;-73
2021/06/11 11:44:40;;;;;;;0.98;0.98;;;21.30;99.90;;;;;;4993859;28;20205;-68
2021/06/11 11:47:07;;;;;;;0.25;0.25;;;21.70;99.90;;;;;;4992378;28;20201;-68
2021/06/11 11:49:35;;;;;;;4.72;3.00;;;22.00;99.90;;;;;;4995554;28;20220;-67
2021/06/11 11:52:03;;;;;;;0.10;0.10;;;22.20;99.90;;;;;;4995476;28;20206;-68
2021/06/11 11:54:31;;;;;;;0.47;0.47;;;22.60;99.90;;;;;;4995828;28;20201;-68
2021/06/11 11:56:58;;;;;;;0.30;0.28;;;22.80;99.90;;;;;;4995669;28;20637;-68
2021/06/11 11:59:25;;;;;;;2.40;1.20;;;23.00;99.90;;;;;;4993282;28;20205;-72
2021/06/11 12:01:51;;;;;;;0.95;0.95;;;23.30;99.90;;;;;;4991679;28;20206;-68
2021/06/11 12:04:18;;;;;;;0.82;0.65;;;23.50;99.90;;;;;;4993079;28;20721;-71
2021/06/11 12:06:45;;;;;;;2.72;2.38;;;23.60;99.90;;;;;;4993556;28;20591;-73
2021/06/11 12:09:13;;;;;;;0.75;0.73;;;23.50;99.90;;;;;;4993423;28;20682;-68
2021/06/11 12:11:40;;;;;;;0.45;0.45;;;23.60;99.90;;;;;;4992092;28;20202;-70
2021/06/11 12:14:06;;;;;;;1.00;0.85;;;23.90;99.90;;;;;;4990360;28;20733;-69
2021/06/11 12:16:33;;;;;;;0.08;0.08;;;24.10;99.90;;;;;;4992800;28;20232;-67
2021/06/11 12:19:00;;;;;;;0.52;0.52;;;24.20;99.90;;;;;;5001228;28;20650;-69
2021/06/11 12:21:27;;;;;;;3.85;1.35;;;24.30;99.90;;;;;;4992865;28;20575;-68
2021/06/11 12:23:54;;;;;;;0.00;0.00;;;24.80;99.90;;;;;;4992094;28;20198;-70
2021/06/11 12:26:22;;;;;;;1.08;1.08;;;25.20;99.90;;;;;;4992120;28;20233;-68
2021/06/11 12:28:49;;;;;;;0.95;0.95;;;25.30;99.90;;;;;;4993715;28;20214;-70
2021/06/11 12:31:15;;;;;;;0.38;0.38;;;25.60;99.90;;;;;;4994454;28;20202;-69
2021/06/11 12:33:42;;;;;;;0.85;0.85;;;25.90;99.90;;;;;;4993732;28;20647;-70
2021/06/11 12:36:09;;;;;;;1.00;0.98;;;25.90;99.90;;;;;;4994152;28;20226;-69
2021/06/11 12:38:36;;;;;;;0.15;0.15;;;25.90;99.90;;;;;;4992829;28;20214;-68
2021/06/11 12:41:04;;;;;;;0.30;0.30;;;26.10;99.90;;;;;;4991451;28;20214;-71
2021/06/11 12:46:13;;;;;;;1.77;1.00;;;26.10;99.90;;;;;;4978740;28;20265;-69
2021/06/11 12:48:40;;;;;;;0.60;0.50;;;25.90;99.90;;;;;;4991098;28;20213;-69
2021/06/11 12:51:06;;;;;;;0.10;0.10;;;25.80;99.90;;;;;;4991862;28;20677;-68
2021/06/11 12:53:33;;;;;;;0.10;0.10;;;25.70;99.90;;;;;;4990448;28;20208;-69
2021/06/11 12:55:59;;;;;;;0.00;0.00;;;25.70;99.90;;;;;;4994665;28;20209;-68
2021/06/11 12:58:26;;;;;;;1.33;1.23;;;25.70;99.90;;;;;;4992569;28;20198;-69